createdAt,value
2022-09-23T00:01:20.857Z,99455.53
2022-09-23T00:03:49.381Z,99458.97
2022-09-23T00:06:20.680Z,99450.72
2022-09-23T00:08:52.597Z,99455.41
2022-09-23T00:11:27.815Z,99459.28
2022-09-23T00:13:57.685Z,99450.53
2022-09-23T00:16:32.754Z,99439.84
2022-09-23T00:19:02.666Z,99447.66
2022-09-23T00:21:30.058Z,99447.78
2022-09-23T00:23:57.442Z,99451.75
2022-09-23T00:26:24.982Z,99453.31
2022-09-23T00:28:52.635Z,99459.91
2022-09-23T00:31:22.787Z,99459.88
2022-09-23T00:34:01.806Z,99475.50
2022-09-23T00:36:30.759Z,99459.63
2022-09-23T00:38:58.831Z,99459.63
2022-09-23T00:41:26.845Z,99475.47
2022-09-23T00:44:00.161Z,99464.59
2022-09-23T00:46:37.999Z,99466.88
2022-09-23T00:49:09.638Z,99446.31
2022-09-23T00:51:43.578Z,99459.03
2022-09-23T00:54:11.576Z,99462.91
2022-09-23T00:56:40.020Z,99464.16
2022-09-23T00:59:09.783Z,99458.16
2022-09-23T01:01:37.954Z,99465.56
2022-09-23T01:04:06.887Z,99457.13
2022-09-23T01:06:34.010Z,99455.19
2022-09-23T01:09:01.451Z,99451.41
2022-09-23T01:11:38.163Z,99453.13
2022-09-23T01:14:32.261Z,99444.66
2022-09-23T01:17:11.157Z,99453.41
2022-09-23T01:19:47.172Z,99456.97
2022-09-23T01:22:32.378Z,99451.28
2022-09-23T01:25:24.202Z,99456.25
2022-09-23T01:28:00.327Z,99458.38
2022-09-23T01:30:36.285Z,99456.16
2022-09-23T01:33:24.644Z,99449.63
2022-09-23T01:36:09.702Z,99417.63
2022-09-23T01:38:43.572Z,99453.47
2022-09-23T01:41:55.439Z,99466.66
2022-09-23T01:44:31.037Z,99451.50
2022-09-23T01:47:14.518Z,99465.53
2022-09-23T01:49:57.988Z,99466.72
2022-09-23T01:52:32.800Z,99456.47
2022-09-23T01:55:12.119Z,99428.22
2022-09-23T01:57:55.186Z,99460.09
2022-09-23T02:00:23.689Z,99462.81
2022-09-23T02:02:59.997Z,99462.91
2022-09-23T02:05:52.128Z,99461.25
2022-09-23T02:09:00.446Z,99465.34
2022-09-23T02:11:28.677Z,99451.03
2022-09-23T02:14:08.009Z,99456.50
2022-09-23T02:16:40.098Z,99453.47
2022-09-23T02:19:27.963Z,99447.25
2022-09-23T02:22:08.855Z,99454.22
2022-09-23T02:24:38.914Z,99439.88
2022-09-23T02:27:15.782Z,99442.13
2022-09-23T02:30:11.999Z,99405.69
2022-09-23T02:32:54.966Z,99442.38
2022-09-23T02:35:29.349Z,99449.84
2022-09-23T02:38:26.745Z,99457.13
2022-09-23T02:41:20.647Z,99454.88
2022-09-23T02:44:14.295Z,99450.16
2022-09-23T02:46:44.657Z,99440.91
2022-09-23T02:49:23.261Z,99459.38
2022-09-23T02:51:51.512Z,99460.59
2022-09-23T02:54:22.332Z,99461.72
2022-09-23T02:56:49.717Z,99459.09
2022-09-23T02:59:19.693Z,99456.16
2022-09-23T03:02:14.462Z,99470.28
2022-09-23T03:04:44.604Z,99467.31
2022-09-23T03:07:21.191Z,99471.47
2022-09-23T03:09:48.452Z,99480.44
2022-09-23T03:12:31.883Z,99465.50
2022-09-23T03:15:12.372Z,99483.63
2022-09-23T03:17:49.989Z,99486.63
2022-09-23T03:20:31.313Z,99490.84
2022-09-23T03:23:09.626Z,99494.84
2022-09-23T03:25:43.501Z,99486.91
2022-09-23T03:28:12.155Z,99492.84
2022-09-23T03:30:40.636Z,99503.97
2022-09-23T03:33:12.214Z,99505.00
2022-09-23T03:36:01.756Z,99504.25
2022-09-23T03:38:35.264Z,99506.31
2022-09-23T03:41:04.343Z,99508.03
2022-09-23T03:43:35.283Z,99488.59
2022-09-23T03:46:08.262Z,99502.25
2022-09-23T03:48:35.604Z,99501.66
2022-09-23T03:51:17.914Z,99502.34
2022-09-23T03:53:44.960Z,99499.91
2022-09-23T03:56:12.060Z,99494.03
2022-09-23T03:58:39.194Z,99490.47
2022-09-23T04:01:06.346Z,99499.28
2022-09-23T04:03:33.600Z,99501.34
2022-09-23T04:06:01.103Z,99512.31
2022-09-23T04:08:28.450Z,99508.41
2022-09-23T04:11:01.041Z,99503.38
2022-09-23T04:13:29.467Z,99508.25
2022-09-23T04:15:56.692Z,99506.97
2022-09-23T04:18:25.145Z,99500.50
2022-09-23T04:20:56.694Z,99514.59
2022-09-23T04:23:25.138Z,99502.13
2022-09-23T04:25:52.590Z,99524.59
2022-09-23T04:28:20.123Z,99521.56
2022-09-23T04:30:49.015Z,99520.50
2022-09-23T04:33:17.001Z,99533.19
2022-09-23T04:35:44.289Z,99503.59
2022-09-23T04:38:12.730Z,99536.22
2022-09-23T04:40:40.132Z,99521.31
2022-09-23T04:43:10.600Z,99524.00
2022-09-23T04:45:40.530Z,99523.06
2022-09-23T04:48:09.620Z,99525.78
2022-09-23T04:50:37.739Z,99521.31
2022-09-23T04:53:05.752Z,99516.47
2022-09-23T04:55:32.909Z,99515.94
2022-09-23T04:58:00.165Z,99524.53
2022-09-23T05:00:28.826Z,99538.66
2022-09-23T05:02:56.055Z,99520.91
2022-09-23T05:05:24.511Z,99542.34
2022-09-23T05:07:51.978Z,99546.66
2022-09-23T05:10:19.245Z,99524.28
2022-09-23T05:12:46.372Z,99540.38
2022-09-23T05:15:16.490Z,99530.78
2022-09-23T05:17:43.865Z,99539.34
2022-09-23T05:20:11.702Z,99545.53
2022-09-23T05:22:38.827Z,99538.06
2022-09-23T05:25:06.313Z,99531.03
2022-09-23T05:27:33.934Z,99539.00
2022-09-23T05:30:01.571Z,99555.81
2022-09-23T05:32:31.397Z,99547.66
2022-09-23T05:34:58.620Z,99552.75
2022-09-23T05:37:25.670Z,99556.19
2022-09-23T05:39:52.918Z,99554.25
2022-09-23T05:42:21.042Z,99543.38
2022-09-23T05:44:48.319Z,99550.06
2022-09-23T05:47:15.585Z,99548.75
2022-09-23T05:49:58.983Z,99550.63
2022-09-23T05:52:27.480Z,99545.81
2022-09-23T05:54:54.634Z,99555.53
2022-09-23T05:57:22.010Z,99557.34
2022-09-23T05:59:49.295Z,99559.03
2022-09-23T06:02:16.434Z,99565.47
2022-09-23T06:04:44.060Z,99558.69
2022-09-23T06:07:11.822Z,99551.84
2022-09-23T06:09:39.070Z,99564.34
2022-09-23T06:12:06.553Z,99562.69
2022-09-23T06:14:33.878Z,99556.97
2022-09-23T06:17:01.008Z,99546.09
2022-09-23T06:19:28.643Z,99553.06
2022-09-23T06:21:55.759Z,99544.03
2022-09-23T06:24:25.896Z,99558.69
2022-09-23T06:26:55.948Z,99552.16
2022-09-23T06:29:23.497Z,99547.72
2022-09-23T06:31:50.876Z,99543.00
2022-09-23T06:34:18.462Z,99557.97
2022-09-23T06:36:46.741Z,99560.78
2022-09-23T06:39:15.598Z,99567.47
2022-09-23T06:41:43.964Z,99559.22
2022-09-23T06:44:15.224Z,99559.72
2022-09-23T06:46:42.882Z,99565.75
2022-09-23T06:49:13.494Z,99562.66
2022-09-23T06:51:41.251Z,99569.66
2022-09-23T06:54:08.686Z,99565.94
2022-09-23T06:56:39.194Z,99569.84
2022-09-23T06:59:10.751Z,99555.38
2022-09-23T07:01:38.396Z,99557.97
2022-09-23T07:04:07.481Z,99561.91
2022-09-23T07:06:35.197Z,99557.50
2022-09-23T07:09:03.309Z,99546.13
2022-09-23T07:11:30.638Z,99564.09
2022-09-23T07:13:57.967Z,99560.81
2022-09-23T07:16:25.964Z,99567.44
2022-09-23T07:18:53.710Z,99568.91
2022-09-23T07:21:20.747Z,99575.09
2022-09-23T07:23:52.126Z,99567.91
2022-09-23T07:26:22.953Z,99565.59
2022-09-23T07:28:59.030Z,99577.66
2022-09-23T07:31:36.859Z,99575.84
2022-09-23T07:34:08.534Z,99569.22
2022-09-23T07:36:37.634Z,99572.28
2022-09-23T07:39:05.433Z,99558.47
2022-09-23T07:41:34.062Z,99578.78
2022-09-23T07:44:03.046Z,99570.31
2022-09-23T07:46:32.974Z,99578.09
2022-09-23T07:49:02.206Z,99574.94
2022-09-23T07:51:36.070Z,99578.50
2022-09-23T07:54:10.933Z,99571.50
2022-09-23T07:56:38.934Z,99580.56
2022-09-23T07:59:09.144Z,99591.34
2022-09-23T08:01:41.221Z,99583.31
2022-09-23T08:04:18.222Z,99588.97
2022-09-23T08:06:48.675Z,99592.28
2022-09-23T08:09:18.014Z,99583.41
2022-09-23T08:11:45.646Z,99584.66
2022-09-23T08:14:14.484Z,99591.63
2022-09-23T08:16:42.871Z,99586.06
2022-09-23T08:19:10.424Z,99578.75
2022-09-23T08:21:39.579Z,99585.25
2022-09-23T08:24:08.931Z,99589.22
2022-09-23T08:26:36.686Z,99585.09
2022-09-23T08:29:05.430Z,99585.59
2022-09-23T08:31:32.913Z,99592.78
2022-09-23T08:34:00.319Z,99585.53
2022-09-23T08:36:27.756Z,99579.22
2022-09-23T08:38:55.480Z,99579.13
2022-09-23T08:41:49.717Z,99584.81
2022-09-23T08:44:25.199Z,99580.50
2022-09-23T08:47:13.775Z,99584.44
2022-09-23T08:49:50.321Z,99582.69
2022-09-23T08:52:36.451Z,99586.16
2022-09-23T08:55:05.013Z,99571.22
2022-09-23T08:57:42.612Z,99582.22
2022-09-23T09:00:29.743Z,99593.38
2022-09-23T09:02:57.251Z,99583.41
2022-09-23T09:05:27.849Z,99580.50
2022-09-23T09:08:00.445Z,99576.69
2022-09-23T09:10:38.016Z,99578.31
2022-09-23T09:13:25.461Z,99564.56
2022-09-23T09:16:48.374Z,99571.81
2022-09-23T09:19:40.711Z,99582.13
2022-09-23T09:22:13.995Z,99564.97
2022-09-23T09:24:45.961Z,99574.59
2022-09-23T09:27:13.790Z,99574.00
2022-09-23T09:29:49.973Z,99577.72
2022-09-23T09:32:30.121Z,99582.13
2022-09-23T09:35:05.912Z,99572.50
2022-09-23T09:37:47.622Z,99573.22
2022-09-23T09:40:21.022Z,99577.16
2022-09-23T09:42:50.826Z,99575.75
2022-09-23T09:45:40.993Z,99586.66
2022-09-23T09:48:39.288Z,99575.28
2022-09-23T09:51:30.295Z,99584.09
2022-09-23T09:54:23.854Z,99569.38
2022-09-23T09:56:52.079Z,99574.34
2022-09-23T09:59:29.044Z,99576.91
2022-09-23T10:02:21.617Z,99578.88
2022-09-23T10:05:19.170Z,99572.47
2022-09-23T10:07:46.351Z,99577.25
2022-09-23T10:10:32.506Z,99574.81
2022-09-23T10:13:16.177Z,99570.16
2022-09-23T10:15:45.550Z,99561.47
2022-09-23T10:18:20.301Z,99561.34
2022-09-23T10:20:48.602Z,99560.91
2022-09-23T10:23:26.932Z,99558.44
2022-09-23T10:26:00.344Z,99558.84
2022-09-23T10:28:33.379Z,99547.50
2022-09-23T10:31:05.787Z,99552.25
2022-09-23T10:33:33.128Z,99541.13
2022-09-23T10:36:00.336Z,99536.63
2022-09-23T10:38:27.659Z,99516.31
2022-09-23T10:41:15.253Z,99541.72
2022-09-23T10:44:28.442Z,99534.06
2022-09-23T10:47:56.461Z,99542.47
2022-09-23T10:50:46.144Z,99543.34
2022-09-23T10:53:32.911Z,99539.88
2022-09-23T10:56:18.756Z,99532.34
2022-09-23T10:58:59.743Z,99526.38
2022-09-23T11:01:59.375Z,99525.72
2022-09-23T11:04:45.277Z,99523.94
2022-09-23T11:07:14.460Z,99513.22
2022-09-23T11:10:42.288Z,99509.44
2022-09-23T11:13:32.085Z,99501.38
2022-09-23T11:16:11.301Z,99496.13
2022-09-23T11:18:44.442Z,99498.28
2022-09-23T11:21:39.567Z,99492.78
2022-09-23T11:24:48.981Z,99499.50
2022-09-23T11:27:28.194Z,99478.28
2022-09-23T11:30:13.406Z,99475.06
2022-09-23T11:33:04.592Z,99483.53
2022-09-23T11:35:46.364Z,99475.13
2022-09-23T11:38:36.701Z,99478.41
2022-09-23T11:41:28.799Z,99473.25
2022-09-23T11:44:19.545Z,99459.06
2022-09-23T11:47:03.572Z,99467.69
2022-09-23T11:49:40.265Z,99446.09
2022-09-23T11:52:20.893Z,99453.06
2022-09-23T11:55:17.693Z,99445.78
2022-09-23T11:58:22.399Z,99437.59
2022-09-23T12:01:01.430Z,99443.69
2022-09-23T12:03:49.176Z,99438.28
2022-09-23T12:06:36.970Z,99437.69
2022-09-23T12:09:54.114Z,99442.38
2022-09-23T12:12:49.968Z,99444.72
2022-09-23T12:15:50.611Z,99444.53
2022-09-23T12:18:36.105Z,99414.06
2022-09-23T12:21:46.212Z,99436.47
2022-09-23T12:24:35.565Z,99429.91
2022-09-23T12:27:09.292Z,99435.41
2022-09-23T12:29:39.887Z,99420.50
2022-09-23T12:32:10.164Z,99450.75
2022-09-23T12:34:49.060Z,99453.06
2022-09-23T12:37:34.199Z,99453.25
2022-09-23T12:40:44.092Z,99438.47
2022-09-23T12:43:29.805Z,99451.97
2022-09-23T12:46:28.301Z,99452.19
2022-09-23T12:48:57.514Z,99449.84
2022-09-23T12:51:26.267Z,99448.16
2022-09-23T12:53:54.190Z,99447.56
2022-09-23T12:56:45.033Z,99448.16
2022-09-23T12:59:29.216Z,99444.78
2022-09-23T13:01:57.119Z,99445.06
2022-09-23T13:04:53.505Z,99432.69
2022-09-23T13:07:27.699Z,99442.34
2022-09-23T13:10:38.665Z,99416.13
2022-09-23T13:13:07.433Z,99432.88
2022-09-23T13:15:36.796Z,99433.13
2022-09-23T13:18:19.294Z,99430.53
2022-09-23T13:20:52.356Z,99435.03
2022-09-23T13:23:26.852Z,99438.34
2022-09-23T13:26:09.021Z,99418.47
2022-09-23T13:28:55.072Z,99423.56
2022-09-23T13:31:22.313Z,99434.09
2022-09-23T13:33:54.874Z,99429.94
2022-09-23T13:36:22.207Z,99436.28
2022-09-23T13:38:49.607Z,99429.13
2022-09-23T13:41:26.937Z,99433.16
2022-09-23T13:43:58.662Z,99423.78
2022-09-23T13:46:31.465Z,99430.25
2022-09-23T13:48:59.017Z,99430.88
2022-09-23T13:51:33.486Z,99432.16
2022-09-23T13:54:03.088Z,99423.47
2022-09-23T13:56:33.080Z,99435.16
2022-09-23T13:59:19.223Z,99439.66
2022-09-23T14:01:47.282Z,99425.53
2022-09-23T14:04:25.609Z,99424.47
2022-09-23T14:06:54.561Z,99431.03
2022-09-23T14:09:27.522Z,99436.53
2022-09-23T14:12:00.004Z,99438.06
2022-09-23T14:14:29.779Z,99415.66
2022-09-23T14:16:58.144Z,99405.59
2022-09-23T14:19:26.569Z,99421.31
2022-09-23T14:21:56.378Z,99421.78
2022-09-23T14:24:30.411Z,99427.59
2022-09-23T14:27:06.778Z,99425.97
2022-09-23T14:29:43.695Z,99426.69
2022-09-23T14:32:26.994Z,99424.66
2022-09-23T14:35:00.357Z,99424.00
2022-09-23T14:37:52.043Z,99436.66
2022-09-23T14:40:20.723Z,99430.47
2022-09-23T14:42:55.859Z,99431.88
2022-09-23T14:45:26.564Z,99420.63
2022-09-23T14:48:24.266Z,99431.28
2022-09-23T14:50:56.868Z,99429.66
2022-09-23T14:53:32.627Z,99433.94
2022-09-23T14:56:10.969Z,99426.78
2022-09-23T14:58:57.351Z,99425.38
2022-09-23T15:01:39.215Z,99426.91
2022-09-23T15:04:15.726Z,99430.38
2022-09-23T15:06:56.671Z,99439.97
2022-09-23T15:09:31.569Z,99428.41
2022-09-23T15:12:03.244Z,99438.91
2022-09-23T15:14:38.776Z,99434.78
2022-09-23T15:17:17.178Z,99448.19
2022-09-23T15:19:46.550Z,99435.72
2022-09-23T15:22:16.726Z,99447.88
2022-09-23T15:24:45.547Z,99458.19
2022-09-23T15:27:30.567Z,99440.41
2022-09-23T15:30:19.769Z,99453.38
2022-09-23T15:32:47.470Z,99456.41
2022-09-23T15:35:18.894Z,99448.31
2022-09-23T15:37:47.060Z,99459.31
2022-09-23T15:40:23.187Z,99452.94
2022-09-23T15:42:52.784Z,99445.66
2022-09-23T15:45:26.430Z,99451.31
2022-09-23T15:47:53.880Z,99446.00
2022-09-23T15:50:21.035Z,99445.88
2022-09-23T15:52:48.317Z,99451.66
2022-09-23T15:55:18.341Z,99447.28
2022-09-23T15:57:45.481Z,99449.94
2022-09-23T16:00:13.619Z,99455.34
2022-09-23T16:02:43.323Z,99454.56
2022-09-23T16:05:22.309Z,99461.69
2022-09-23T16:07:52.463Z,99449.56
2022-09-23T16:10:21.570Z,99447.22
2022-09-23T16:12:49.806Z,99445.22
2022-09-23T16:15:19.598Z,99453.97
2022-09-23T16:17:46.912Z,99454.88
2022-09-23T16:20:17.963Z,99453.59
2022-09-23T16:22:54.737Z,99451.59
2022-09-23T16:25:28.279Z,99459.66
2022-09-23T16:27:56.647Z,99444.34
2022-09-23T16:30:26.153Z,99448.28
2022-09-23T16:32:53.819Z,99469.63
2022-09-23T16:35:22.931Z,99474.34
2022-09-23T16:37:51.258Z,99477.78
2022-09-23T16:40:29.465Z,99484.34
2022-09-23T16:42:58.520Z,99486.50
2022-09-23T16:45:25.757Z,99488.00
2022-09-23T16:47:53.109Z,99489.19
2022-09-23T16:50:25.078Z,99490.00
2022-09-23T16:52:56.241Z,99480.91
2022-09-23T16:55:25.813Z,99491.38
2022-09-23T16:57:54.092Z,99483.59
2022-09-23T17:00:40.088Z,99493.03
2022-09-23T17:03:25.808Z,99491.84
2022-09-23T17:05:54.508Z,99497.09
2022-09-23T17:08:21.788Z,99500.03
2022-09-23T17:10:57.152Z,99497.16
2022-09-23T17:13:29.216Z,99504.16
2022-09-23T17:15:57.782Z,99496.72
2022-09-23T17:18:25.433Z,99499.19
2022-09-23T17:21:10.995Z,99509.59
2022-09-23T17:23:38.320Z,99510.13
2022-09-23T17:26:09.831Z,99512.88
2022-09-23T17:28:38.322Z,99511.59
2022-09-23T17:31:06.564Z,99505.09
2022-09-23T17:33:37.783Z,99511.44
2022-09-23T17:36:13.257Z,99512.47
2022-09-23T17:38:43.378Z,99524.66
2022-09-23T17:41:11.881Z,99532.00
2022-09-23T17:43:39.852Z,99530.06
2022-09-23T17:46:12.932Z,99530.06
2022-09-23T17:48:42.255Z,99534.91
2022-09-23T17:51:19.932Z,99530.69
2022-09-23T17:53:48.581Z,99545.66
2022-09-23T17:56:26.957Z,99537.19
2022-09-23T17:58:54.714Z,99534.59
2022-09-23T18:01:26.830Z,99536.38
2022-09-23T18:03:59.576Z,99543.03
2022-09-23T18:06:28.939Z,99537.34
2022-09-23T18:08:56.190Z,99534.75
2022-09-23T18:11:26.092Z,99542.88
2022-09-23T18:13:55.594Z,99559.59
2022-09-23T18:16:25.778Z,99547.72
2022-09-23T18:18:54.904Z,99552.28
2022-09-23T18:21:23.124Z,99548.22
2022-09-23T18:23:51.431Z,99543.69
2022-09-23T18:26:24.387Z,99521.56
2022-09-23T18:28:53.747Z,99539.13
2022-09-23T18:31:20.991Z,99553.09
2022-09-23T18:33:51.940Z,99542.34
2022-09-23T18:36:23.531Z,99554.34
2022-09-23T18:38:51.467Z,99546.22
2022-09-23T18:41:19.141Z,99555.78
2022-09-23T18:43:48.712Z,99543.72
2022-09-23T18:46:18.783Z,99542.56
2022-09-23T18:49:21.651Z,99540.09
2022-09-23T18:51:55.783Z,99539.69
2022-09-23T18:54:32.562Z,99549.31
2022-09-23T18:57:00.224Z,99554.91
2022-09-23T18:59:29.826Z,99556.69
2022-09-23T19:01:57.702Z,99562.81
2022-09-23T19:04:26.541Z,99557.31
2022-09-23T19:06:56.674Z,99549.63
2022-09-23T19:09:25.198Z,99558.22
2022-09-23T19:11:53.470Z,99552.81
2022-09-23T19:14:22.402Z,99561.03
2022-09-23T19:16:50.598Z,99541.63
2022-09-23T19:19:17.789Z,99554.56
2022-09-23T19:21:45.911Z,99564.56
2022-09-23T19:24:20.165Z,99552.38
2022-09-23T19:26:48.566Z,99557.56
2022-09-23T19:29:19.891Z,99568.69
2022-09-23T19:31:47.091Z,99563.13
2022-09-23T19:34:23.131Z,99566.81
2022-09-23T19:36:51.559Z,99533.13
2022-09-23T19:39:22.884Z,99567.63
2022-09-23T19:41:55.884Z,99532.41
2022-09-23T19:44:26.745Z,99559.97
2022-09-23T19:46:57.079Z,99558.06
2022-09-23T19:49:25.441Z,99570.59
2022-09-23T19:51:55.688Z,99565.81
2022-09-23T19:54:26.622Z,99554.44
2022-09-23T19:56:53.994Z,99558.59
2022-09-23T19:59:21.168Z,99542.94
2022-09-23T20:01:48.553Z,99553.72
2022-09-23T20:04:16.337Z,99543.72
2022-09-23T20:06:43.727Z,99540.66
2022-09-23T20:09:10.856Z,99551.06
2022-09-23T20:11:38.121Z,99556.88
2022-09-23T20:14:06.601Z,99538.66
2022-09-23T20:16:35.947Z,99536.31
2022-09-23T20:19:04.412Z,99544.38
2022-09-23T20:21:33.661Z,99545.63
2022-09-23T20:24:02.079Z,99543.69
2022-09-23T20:26:47.716Z,99547.63
2022-09-23T20:29:15.596Z,99545.63
2022-09-23T20:31:43.084Z,99566.00
2022-09-23T20:34:11.224Z,99547.59
2022-09-23T20:36:41.011Z,99545.84
2022-09-23T20:39:10.168Z,99563.38
2022-09-23T20:41:39.344Z,99559.50
2022-09-23T20:44:12.787Z,99533.19
2022-09-23T20:46:47.917Z,99565.09
2022-09-23T20:49:19.725Z,99562.16
2022-09-23T20:51:50.830Z,99562.75
2022-09-23T20:54:21.005Z,99556.22
2022-09-23T20:56:48.352Z,99560.50
2022-09-23T20:59:17.953Z,99571.91
2022-09-23T21:01:45.472Z,99563.88
2022-09-23T21:04:12.786Z,99556.63
2022-09-23T21:06:40.155Z,99555.56
2022-09-23T21:09:07.306Z,99547.88
2022-09-23T21:11:34.827Z,99555.63
2022-09-23T21:14:02.169Z,99549.00
2022-09-23T21:16:29.957Z,99554.25
2022-09-23T21:18:58.242Z,99559.44
2022-09-23T21:21:25.799Z,99562.50
2022-09-23T21:23:52.928Z,99549.88
2022-09-23T21:26:23.324Z,99561.22
2022-09-23T21:28:53.073Z,99561.22
2022-09-23T21:31:26.162Z,99524.97
2022-09-23T21:34:04.368Z,99558.47
2022-09-23T21:36:34.662Z,99546.88
2022-09-23T21:39:03.148Z,99558.88
2022-09-23T21:41:31.131Z,99556.22
2022-09-23T21:43:59.408Z,99562.56
2022-09-23T21:46:28.324Z,99559.19
2022-09-23T21:48:57.514Z,99566.22
2022-09-23T21:51:27.122Z,99514.25
2022-09-23T21:53:56.886Z,99555.28
2022-09-23T21:56:27.298Z,99543.19
2022-09-23T21:58:55.670Z,99566.19
2022-09-23T22:01:29.017Z,99565.69
2022-09-23T22:03:58.357Z,99570.56
2022-09-23T22:06:27.655Z,99572.50
2022-09-23T22:09:02.037Z,99571.28
2022-09-23T22:11:51.626Z,99559.66
2022-09-23T22:14:20.478Z,99554.38
2022-09-23T22:16:47.646Z,99541.03
2022-09-23T22:19:15.731Z,99554.97
2022-09-23T22:21:45.170Z,99547.16
2022-09-23T22:24:13.316Z,99554.97
2022-09-23T22:26:44.872Z,99571.88
2022-09-23T22:29:32.724Z,99566.28
2022-09-23T22:32:20.289Z,99566.78
2022-09-23T22:34:51.173Z,99573.50
2022-09-23T22:37:21.822Z,99552.94
2022-09-23T22:39:49.016Z,99557.00
2022-09-23T22:42:16.373Z,99560.47
2022-09-23T22:44:43.558Z,99567.09
2022-09-23T22:47:11.008Z,99562.09
2022-09-23T22:49:38.239Z,99554.56
2022-09-23T22:52:08.461Z,99554.25
2022-09-23T22:54:36.039Z,99559.25
2022-09-23T22:57:07.853Z,99554.66
2022-09-23T22:59:35.930Z,99554.66
2022-09-23T23:02:03.705Z,99555.69
2022-09-23T23:04:31.094Z,99557.81
2022-09-23T23:06:59.023Z,99543.78
2022-09-23T23:09:26.506Z,99550.28
2022-09-23T23:11:53.725Z,99561.59
2022-09-23T23:14:21.452Z,99552.72
2022-09-23T23:16:48.700Z,99547.53
2022-09-23T23:19:17.720Z,99557.41
2022-09-23T23:21:45.663Z,99549.69
2022-09-23T23:24:21.883Z,99554.53
2022-09-23T23:26:50.289Z,99548.63
2022-09-23T23:29:19.256Z,99558.78
2022-09-23T23:31:46.930Z,99552.47
2022-09-23T23:34:17.269Z,99545.47
2022-09-23T23:36:45.929Z,99554.88
2022-09-23T23:39:13.802Z,99532.97
2022-09-23T23:41:41.766Z,99535.72
2022-09-23T23:44:09.488Z,99539.09
2022-09-23T23:46:37.491Z,99531.56
2022-09-23T23:49:05.093Z,99539.91
2022-09-23T23:51:32.393Z,99540.13
2022-09-23T23:53:59.913Z,99545.72
2022-09-23T23:56:27.759Z,99539.91
2022-09-23T23:58:56.878Z,99538.28
